createdAt,value
2022-10-04T00:01:54.534Z,9.02
2022-10-04T00:04:28.690Z,5.75
2022-10-04T00:07:02.735Z,6.97
2022-10-04T00:09:36.760Z,5.97
2022-10-04T00:12:08.005Z,5.45
2022-10-04T00:14:40.508Z,7.22
2022-10-04T00:17:17.346Z,4.57
2022-10-04T00:19:48.460Z,4.05
2022-10-04T00:22:20.295Z,4.57
2022-10-04T00:25:20.503Z,7.63
2022-10-04T00:28:19.412Z,7.22
2022-10-04T00:31:20.310Z,6.22
2022-10-04T00:33:54.645Z,4.68
2022-10-04T00:36:48.654Z,4.45
2022-10-04T00:39:30.496Z,4.72
2022-10-04T00:42:09.584Z,4.47
2022-10-04T00:44:43.929Z,2.55
2022-10-04T00:47:25.849Z,7.93
2022-10-04T00:50:04.626Z,8.35
2022-10-04T00:52:37.365Z,5.80
2022-10-04T00:55:10.217Z,8.10
2022-10-04T00:57:43.330Z,9.15
2022-10-04T01:00:17.226Z,5.22
2022-10-04T01:02:55.453Z,4.38
2022-10-04T01:05:31.165Z,3.97
2022-10-04T01:08:07.870Z,7.32
2022-10-04T01:10:43.629Z,4.88
2022-10-04T01:13:17.078Z,4.97
2022-10-04T01:15:51.987Z,5.25
2022-10-04T01:18:33.780Z,6.78
2022-10-04T01:21:08.108Z,4.07
2022-10-04T01:23:44.011Z,4.55
2022-10-04T01:26:39.202Z,3.83
2022-10-04T01:29:15.536Z,6.25
2022-10-04T01:31:47.372Z,8.00
2022-10-04T01:34:19.505Z,2.67
2022-10-04T01:36:51.565Z,6.43
2022-10-04T01:39:25.632Z,8.57
2022-10-04T01:42:00.275Z,7.00
2022-10-04T01:44:34.138Z,5.45
2022-10-04T01:47:07.002Z,6.45
2022-10-04T01:49:38.886Z,7.80
2022-10-04T01:52:13.048Z,3.00
2022-10-04T01:54:47.492Z,2.92
2022-10-04T01:57:20.522Z,8.40
2022-10-04T01:59:54.495Z,5.68
2022-10-04T02:02:29.085Z,5.22
2022-10-04T02:05:00.738Z,4.38
2022-10-04T02:07:32.936Z,7.57
2022-10-04T02:10:08.283Z,8.55
2022-10-04T02:12:38.931Z,3.80
2022-10-04T02:15:11.672Z,9.30
2022-10-04T02:17:43.535Z,7.00
2022-10-04T02:20:18.899Z,4.10
2022-10-04T02:23:03.421Z,5.70
2022-10-04T02:25:36.170Z,7.47
2022-10-04T02:28:06.248Z,5.18
2022-10-04T02:30:39.202Z,6.50
2022-10-04T02:33:06.901Z,6.35
2022-10-04T02:35:39.338Z,10.95
2022-10-04T02:38:14.046Z,6.40
2022-10-04T02:40:51.103Z,4.43
2022-10-04T02:43:23.340Z,3.10
2022-10-04T02:45:55.580Z,6.95
2022-10-04T02:48:34.790Z,9.52
2022-10-04T02:53:44.161Z,7.30
2022-10-04T02:56:17.003Z,2.15
2022-10-04T02:58:46.939Z,7.80
2022-10-04T03:01:26.573Z,5.88
2022-10-04T03:03:58.051Z,3.88
2022-10-04T03:06:32.506Z,5.30
2022-10-04T03:09:05.092Z,5.88
2022-10-04T03:11:39.442Z,5.30
2022-10-04T03:14:13.825Z,6.65
2022-10-04T03:16:46.614Z,7.22
2022-10-04T03:19:19.300Z,6.13
2022-10-04T03:21:50.207Z,8.18
2022-10-04T03:24:23.054Z,5.15
2022-10-04T03:26:56.935Z,6.53
2022-10-04T03:29:28.172Z,7.00
2022-10-04T03:32:00.261Z,6.65
2022-10-04T03:34:36.292Z,3.50
2022-10-04T03:37:07.171Z,5.72
2022-10-04T03:39:40.042Z,3.80
2022-10-04T03:42:15.004Z,6.47
2022-10-04T03:44:46.173Z,6.35
2022-10-04T03:47:18.062Z,3.80
2022-10-04T03:49:50.940Z,4.50
2022-10-04T03:52:24.908Z,6.35
2022-10-04T03:54:56.456Z,7.25
2022-10-04T03:57:29.018Z,8.38
2022-10-04T03:59:59.171Z,11.93
2022-10-04T04:02:35.361Z,5.47
2022-10-04T04:05:12.531Z,9.13
2022-10-04T04:07:47.062Z,3.88
2022-10-04T04:10:21.674Z,6.35
2022-10-04T04:12:59.181Z,6.90
2022-10-04T04:15:31.932Z,3.80
2022-10-04T04:18:03.592Z,7.00
2022-10-04T04:20:36.040Z,4.75
2022-10-04T04:23:11.165Z,5.32
2022-10-04T04:25:43.211Z,4.03
2022-10-04T04:28:28.243Z,5.75
2022-10-04T04:31:01.781Z,4.28
2022-10-04T04:33:33.534Z,10.63
2022-10-04T04:36:08.166Z,4.65
2022-10-04T04:38:58.243Z,6.63
2022-10-04T04:41:30.497Z,7.10
2022-10-04T04:44:03.396Z,10.30
2022-10-04T04:46:33.991Z,12.43
2022-10-04T04:49:06.389Z,3.53
2022-10-04T04:51:36.430Z,8.85
2022-10-04T04:54:09.457Z,5.32
2022-10-04T04:56:39.369Z,4.05
2022-10-04T04:59:12.102Z,6.35
2022-10-04T05:01:46.566Z,6.32
2022-10-04T05:04:22.320Z,2.28
2022-10-04T05:07:02.916Z,9.88
2022-10-04T05:09:34.221Z,5.93
2022-10-04T05:12:10.620Z,6.20
2022-10-04T05:14:49.118Z,6.00
2022-10-04T05:17:23.080Z,7.35
2022-10-04T05:19:53.742Z,7.82
2022-10-04T05:22:25.718Z,8.98
2022-10-04T05:24:57.377Z,7.82
2022-10-04T05:27:30.795Z,4.30
2022-10-04T05:30:07.563Z,8.65
2022-10-04T05:32:43.875Z,11.20
2022-10-04T05:35:20.178Z,5.75
2022-10-04T05:38:05.419Z,5.03
2022-10-04T05:40:50.782Z,4.97
2022-10-04T05:43:25.620Z,9.95
2022-10-04T05:46:23.403Z,7.60
2022-10-04T05:48:57.345Z,11.23
2022-10-04T05:51:29.616Z,4.35
2022-10-04T05:54:01.149Z,12.80
2022-10-04T05:57:04.141Z,3.90
2022-10-04T05:59:44.338Z,5.75
2022-10-04T06:02:27.056Z,7.50
2022-10-04T06:05:05.695Z,8.02
2022-10-04T06:07:38.168Z,7.45
2022-10-04T06:10:35.933Z,8.32
2022-10-04T06:13:13.247Z,5.80
2022-10-04T06:16:00.303Z,5.45
2022-10-04T06:19:11.924Z,7.50
2022-10-04T06:21:49.560Z,7.00
2022-10-04T06:24:26.180Z,5.20
2022-10-04T06:27:01.541Z,8.90
2022-10-04T06:29:35.502Z,8.27
2022-10-04T06:32:26.944Z,7.80
2022-10-04T06:35:16.468Z,11.55
2022-10-04T06:37:57.537Z,6.43
2022-10-04T06:40:44.112Z,5.45
2022-10-04T06:43:38.598Z,5.32
2022-10-04T06:46:15.288Z,5.75
2022-10-04T06:49:09.957Z,6.35
2022-10-04T06:52:16.726Z,7.25
2022-10-04T06:55:03.949Z,7.03
2022-10-04T06:57:51.113Z,3.83
2022-10-04T07:00:22.682Z,8.35
2022-10-04T07:02:56.457Z,7.97
2022-10-04T07:05:33.096Z,9.23
2022-10-04T07:08:30.763Z,7.30
2022-10-04T07:11:06.521Z,4.95
2022-10-04T07:13:46.141Z,9.52
2022-10-04T07:16:29.032Z,9.52
2022-10-04T07:19:08.442Z,14.15
2022-10-04T07:21:46.758Z,11.05
2022-10-04T07:24:27.379Z,11.88
2022-10-04T07:26:58.464Z,5.13
2022-10-04T07:29:29.283Z,6.63
2022-10-04T07:32:09.967Z,8.68
2022-10-04T07:34:41.898Z,8.00
2022-10-04T07:37:13.398Z,9.98
2022-10-04T07:39:50.937Z,6.15
2022-10-04T07:42:26.154Z,8.45
2022-10-04T07:45:08.860Z,7.82
2022-10-04T07:47:38.903Z,5.20
2022-10-04T07:50:25.529Z,7.93
2022-10-04T07:52:59.198Z,4.15
2022-10-04T07:55:42.792Z,5.20
2022-10-04T07:58:22.362Z,3.80
2022-10-04T08:00:57.681Z,3.80
2022-10-04T08:03:42.895Z,6.15
2022-10-04T08:06:16.755Z,3.03
2022-10-04T08:09:01.662Z,11.00
2022-10-04T08:11:41.427Z,3.65
2022-10-04T08:14:20.987Z,7.35
2022-10-04T08:17:00.206Z,7.40
2022-10-04T08:19:37.752Z,5.55
2022-10-04T08:22:19.378Z,7.50
2022-10-04T08:24:58.406Z,7.70
2022-10-04T08:28:09.767Z,12.43
2022-10-04T08:30:51.147Z,11.55
2022-10-04T08:33:28.645Z,5.75
2022-10-04T08:36:07.115Z,4.55
2022-10-04T08:38:45.493Z,12.77
2022-10-04T08:41:47.632Z,9.17
2022-10-04T08:44:43.210Z,8.63
2022-10-04T08:47:57.760Z,5.70
2022-10-04T08:50:52.425Z,8.93
2022-10-04T08:53:49.095Z,9.80
2022-10-04T08:56:45.760Z,6.40
2022-10-04T08:59:51.449Z,6.93
2022-10-04T09:02:54.063Z,9.68
2022-10-04T09:05:32.439Z,5.57
2022-10-04T09:08:37.534Z,4.60
2022-10-04T09:11:33.125Z,5.63
2022-10-04T09:14:18.228Z,7.38
2022-10-04T09:16:51.573Z,6.63
2022-10-04T09:19:24.566Z,6.65
2022-10-04T09:22:28.103Z,7.50
2022-10-04T09:25:16.721Z,6.50
2022-10-04T09:28:24.794Z,7.72
2022-10-04T09:31:07.604Z,5.23
2022-10-04T09:34:00.609Z,7.95
2022-10-04T09:36:54.047Z,10.13
2022-10-04T09:39:45.483Z,12.85
2022-10-04T09:42:52.030Z,5.30
2022-10-04T09:45:51.841Z,6.15
2022-10-04T09:48:28.261Z,9.13
2022-10-04T09:51:30.646Z,5.70
2022-10-04T09:54:24.738Z,9.48
2022-10-04T09:57:06.900Z,4.05
2022-10-04T09:59:57.284Z,9.18
2022-10-04T10:02:48.822Z,6.47
2022-10-04T10:05:29.779Z,6.57
2022-10-04T10:08:14.436Z,7.18
2022-10-04T10:11:02.068Z,11.70
2022-10-04T10:13:57.478Z,7.18
2022-10-04T10:16:42.457Z,9.32
2022-10-04T10:19:45.586Z,8.10
2022-10-04T10:22:34.709Z,5.15
2022-10-04T10:28:15.165Z,7.97
2022-10-04T10:30:56.926Z,6.35
2022-10-04T10:34:10.859Z,10.05
2022-10-04T10:37:00.630Z,8.18
2022-10-04T10:40:03.372Z,4.35
2022-10-04T10:43:03.345Z,8.70
2022-10-04T10:45:46.340Z,5.13
2022-10-04T10:48:19.422Z,6.35
2022-10-04T10:51:04.477Z,9.63
2022-10-04T10:53:57.277Z,6.50
2022-10-04T10:56:49.188Z,6.57
2022-10-04T10:59:51.417Z,4.88
2022-10-04T11:02:49.875Z,3.25
2022-10-04T11:08:09.362Z,7.68
2022-10-04T11:11:07.302Z,7.57
2022-10-04T11:13:57.368Z,10.02
2022-10-04T11:16:57.461Z,8.80
2022-10-04T11:19:57.163Z,4.90
2022-10-04T11:23:17.851Z,2.70
2022-10-04T11:26:22.812Z,7.30
2022-10-04T11:28:57.718Z,3.30
2022-10-04T11:31:43.552Z,7.95
2022-10-04T11:34:33.769Z,10.15
2022-10-04T11:37:10.316Z,2.45
2022-10-04T11:39:56.087Z,7.22
2022-10-04T11:42:39.296Z,7.10
2022-10-04T11:45:33.610Z,4.13
2022-10-04T11:48:13.680Z,8.00
2022-10-04T11:51:19.308Z,6.45
2022-10-04T11:54:27.622Z,3.78
2022-10-04T11:57:23.916Z,5.50
2022-10-04T12:00:02.852Z,8.55
2022-10-04T12:03:01.781Z,17.42
2022-10-04T12:06:10.147Z,7.97
2022-10-04T12:09:04.975Z,5.05
2022-10-04T12:12:14.631Z,9.88
2022-10-04T12:14:57.373Z,6.03
2022-10-04T12:17:50.874Z,5.32
2022-10-04T12:21:03.461Z,8.45
2022-10-04T12:23:56.281Z,12.15
2022-10-04T12:26:55.917Z,4.85
2022-10-04T12:29:56.109Z,6.13
2022-10-04T12:32:32.436Z,3.92
2022-10-04T12:35:10.468Z,4.03
2022-10-04T12:37:43.626Z,6.60
2022-10-04T12:40:28.952Z,7.43
2022-10-04T12:43:05.257Z,6.50
2022-10-04T12:45:49.947Z,9.43
2022-10-04T12:48:48.219Z,5.47
2022-10-04T12:51:40.971Z,3.20
2022-10-04T12:54:20.264Z,6.20
2022-10-04T12:56:54.238Z,8.25
2022-10-04T12:59:42.020Z,5.32
2022-10-04T13:02:24.316Z,10.35
2022-10-04T13:05:01.669Z,6.70
2022-10-04T13:07:45.329Z,4.20
2022-10-04T13:10:26.998Z,6.15
2022-10-04T13:13:29.522Z,4.32
2022-10-04T13:19:07.189Z,4.05
2022-10-04T13:22:11.669Z,4.43
2022-10-04T13:24:58.748Z,5.53
2022-10-04T13:27:38.504Z,4.20
2022-10-04T13:30:18.591Z,7.93
2022-10-04T13:32:56.893Z,5.00
2022-10-04T13:35:31.957Z,12.20
2022-10-04T13:41:03.198Z,5.55
2022-10-04T13:44:05.433Z,4.95
2022-10-04T13:46:42.349Z,5.63
2022-10-04T13:49:25.261Z,9.38
2022-10-04T13:52:45.682Z,11.35
2022-10-04T13:55:38.574Z,5.72
2022-10-04T13:58:19.563Z,4.93
2022-10-04T14:01:04.014Z,5.25
2022-10-04T14:03:48.964Z,6.35
2022-10-04T14:06:51.477Z,7.68
2022-10-04T14:09:37.437Z,5.43
2022-10-04T14:12:40.293Z,6.97
2022-10-04T14:15:48.368Z,5.85
2022-10-04T14:18:56.312Z,4.80
2022-10-04T14:21:48.141Z,3.40
2022-10-04T14:24:53.870Z,4.32
2022-10-04T14:27:53.047Z,4.03
2022-10-04T14:30:25.233Z,5.10
2022-10-04T14:33:12.674Z,5.05
2022-10-04T14:35:47.787Z,2.60
2022-10-04T14:38:47.645Z,5.00
2022-10-04T14:41:57.663Z,4.18
2022-10-04T14:44:54.932Z,5.43
2022-10-04T14:47:39.426Z,4.80
2022-10-04T14:50:26.737Z,4.28
2022-10-04T14:53:10.113Z,5.13
2022-10-04T14:56:11.884Z,5.75
2022-10-04T14:58:50.207Z,5.13
2022-10-04T15:01:22.712Z,3.40
2022-10-04T15:04:14.138Z,3.65
2022-10-04T15:06:50.879Z,7.03
2022-10-04T15:09:52.511Z,9.88
2022-10-04T15:15:55.388Z,3.70
2022-10-04T15:18:33.794Z,3.15
2022-10-04T15:21:07.585Z,5.30
2022-10-04T15:23:40.666Z,4.30
2022-10-04T15:26:49.362Z,4.38
2022-10-04T15:29:25.815Z,6.05
2022-10-04T15:32:05.477Z,4.78
2022-10-04T15:34:39.051Z,5.72
2022-10-04T15:37:17.097Z,6.82
2022-10-04T15:40:12.299Z,6.20
2022-10-04T15:42:59.816Z,4.78
2022-10-04T15:45:50.042Z,4.53
2022-10-04T15:48:36.816Z,4.20
2022-10-04T15:51:12.898Z,17.98
2022-10-04T15:54:15.616Z,13.65
2022-10-04T15:56:51.912Z,15.23
2022-10-04T15:59:53.672Z,38.88
2022-10-04T16:02:34.525Z,25.80
2022-10-04T16:05:15.144Z,20.50
2022-10-04T16:08:09.593Z,44.15
2022-10-04T16:10:58.751Z,48.70
2022-10-04T16:16:58.687Z,22.00
2022-10-04T16:19:46.265Z,41.42
2022-10-04T16:22:18.060Z,34.97
2022-10-04T16:24:51.538Z,37.50
2022-10-04T16:27:46.658Z,26.30
2022-10-04T16:30:27.036Z,34.72
2022-10-04T16:33:23.925Z,45.72
2022-10-04T16:36:06.607Z,63.58
2022-10-04T16:38:58.201Z,59.78
2022-10-04T16:41:37.210Z,43.90
2022-10-04T16:44:07.903Z,41.28
2022-10-04T16:46:46.614Z,27.08
2022-10-04T16:49:27.002Z,24.67
2022-10-04T16:52:10.036Z,23.75
2022-10-04T16:54:59.548Z,24.83
2022-10-04T16:57:30.408Z,21.77
2022-10-04T17:00:06.055Z,21.27
2022-10-04T17:03:00.531Z,21.10
2022-10-04T17:05:47.585Z,22.17
2022-10-04T17:08:50.077Z,24.25
2022-10-04T17:11:44.552Z,27.35
2022-10-04T17:14:49.462Z,27.10
2022-10-04T17:17:25.932Z,19.58
2022-10-04T17:20:00.512Z,19.27
2022-10-04T17:22:36.850Z,31.85
2022-10-04T17:25:21.060Z,38.47
2022-10-04T17:27:55.155Z,34.28
2022-10-04T17:30:26.351Z,20.20
2022-10-04T17:33:10.749Z,16.80
2022-10-04T17:36:00.486Z,17.00
2022-10-04T17:38:36.697Z,21.88
2022-10-04T17:41:19.037Z,33.30
2022-10-04T17:44:16.496Z,22.23
2022-10-04T17:46:53.346Z,25.50
2022-10-04T17:49:40.684Z,25.77
2022-10-04T17:52:30.600Z,40.72
2022-10-04T17:55:14.814Z,45.33
2022-10-04T17:57:51.234Z,29.92
2022-10-04T18:00:25.985Z,28.55
2022-10-04T18:03:05.617Z,17.40
2022-10-04T18:05:45.994Z,20.77
2022-10-04T18:08:20.105Z,32.88
2022-10-04T18:10:53.220Z,39.30
2022-10-04T18:13:30.510Z,57.00
2022-10-04T18:16:05.298Z,49.55
2022-10-04T18:18:41.995Z,34.30
2022-10-04T18:21:27.474Z,21.90
2022-10-04T18:24:00.368Z,20.23
2022-10-04T18:26:33.024Z,11.73
2022-10-04T18:29:09.042Z,11.07
2022-10-04T18:31:40.758Z,10.00
2022-10-04T18:34:28.734Z,11.38
2022-10-04T18:37:08.464Z,29.58
2022-10-04T18:39:51.886Z,66.57
2022-10-04T18:42:35.395Z,46.38
2022-10-04T18:45:23.121Z,41.25
2022-10-04T18:47:53.914Z,44.97
2022-10-04T18:50:35.394Z,44.25
2022-10-04T18:53:40.985Z,64.60
2022-10-04T18:56:11.916Z,63.63
2022-10-04T18:59:22.291Z,93.70
2022-10-04T19:02:03.717Z,128.57
2022-10-04T19:04:54.703Z,90.65
2022-10-04T19:07:32.185Z,77.35
2022-10-04T19:10:17.121Z,99.43
2022-10-04T19:12:54.659Z,78.03
2022-10-04T19:15:52.554Z,49.83
2022-10-04T19:18:40.282Z,37.70
2022-10-04T19:21:16.143Z,49.78
2022-10-04T19:24:07.759Z,46.28
2022-10-04T19:26:40.828Z,53.25
2022-10-04T19:29:21.359Z,50.65
2022-10-04T19:31:55.706Z,57.08
2022-10-04T19:34:33.096Z,54.72
2022-10-04T19:37:06.520Z,51.97
2022-10-04T19:39:47.504Z,44.67
2022-10-04T19:42:18.259Z,41.13
2022-10-04T19:44:59.498Z,38.63
2022-10-04T19:47:41.968Z,24.20
2022-10-04T19:50:24.011Z,17.95
2022-10-04T19:52:59.649Z,24.38
2022-10-04T19:55:46.822Z,29.35
2022-10-04T19:58:25.872Z,26.88
2022-10-04T20:00:56.552Z,23.60
2022-10-04T20:03:26.494Z,25.55
2022-10-04T20:05:59.462Z,35.80
2022-10-04T20:08:47.564Z,43.42
2022-10-04T20:11:21.082Z,47.58
2022-10-04T20:14:28.547Z,25.20
2022-10-04T20:17:08.631Z,30.15
2022-10-04T20:19:44.567Z,17.33
2022-10-04T20:22:32.922Z,19.52
2022-10-04T20:25:02.749Z,17.87
2022-10-04T20:28:03.658Z,17.17
2022-10-04T20:30:52.904Z,14.10
2022-10-04T20:33:53.149Z,13.10
2022-10-04T20:36:55.607Z,15.95
2022-10-04T20:40:00.886Z,13.95
2022-10-04T20:42:40.519Z,15.52
2022-10-04T20:45:31.659Z,22.08
2022-10-04T20:48:01.712Z,17.75
2022-10-04T20:50:42.393Z,18.33
2022-10-04T20:53:21.788Z,17.42
2022-10-04T20:55:54.173Z,21.23
2022-10-04T20:58:31.678Z,15.35
2022-10-04T21:01:11.130Z,16.73
2022-10-04T21:03:41.071Z,18.30
2022-10-04T21:06:12.786Z,16.40
2022-10-04T21:08:43.422Z,23.73
2022-10-04T21:11:20.777Z,20.70
2022-10-04T21:13:56.574Z,21.42
2022-10-04T21:16:43.570Z,22.17
2022-10-04T21:19:46.149Z,31.42
2022-10-04T21:22:34.905Z,24.52
2022-10-04T21:25:06.372Z,17.95
2022-10-04T21:27:38.023Z,19.30
2022-10-04T21:30:16.709Z,26.30
2022-10-04T21:32:46.686Z,19.00
2022-10-04T21:35:16.762Z,26.08
2022-10-04T21:37:46.990Z,27.58
2022-10-04T21:40:17.061Z,27.52
2022-10-04T21:42:46.893Z,27.65
2022-10-04T21:45:19.351Z,25.95
2022-10-04T21:47:49.210Z,30.80
2022-10-04T21:50:19.063Z,25.48
2022-10-04T21:52:48.934Z,23.50
2022-10-04T21:55:19.064Z,27.50
2022-10-04T21:57:48.875Z,28.38
2022-10-04T22:00:21.538Z,27.58
2022-10-04T22:02:51.383Z,25.98
2022-10-04T22:05:21.221Z,21.23
2022-10-04T22:07:51.135Z,23.20
2022-10-04T22:10:21.008Z,25.38
2022-10-04T22:12:51.100Z,20.63
2022-10-04T22:15:24.122Z,22.15
2022-10-04T22:17:54.000Z,21.65
2022-10-04T22:20:23.946Z,23.83
2022-10-04T22:22:53.811Z,23.25
2022-10-04T22:25:25.626Z,19.77
2022-10-04T22:27:56.173Z,19.00
2022-10-04T22:30:31.263Z,20.88
2022-10-04T22:33:02.260Z,16.77
2022-10-04T22:35:34.839Z,17.42
2022-10-04T22:38:05.095Z,17.02
2022-10-04T22:40:34.928Z,21.60
2022-10-04T22:43:04.747Z,20.73
2022-10-04T22:45:37.383Z,19.90
2022-10-04T22:48:13.556Z,20.45
2022-10-04T22:50:43.575Z,26.38
2022-10-04T22:53:16.304Z,23.80
2022-10-04T22:55:46.201Z,19.45
2022-10-04T22:58:17.037Z,17.75
2022-10-04T23:00:49.538Z,22.13
2022-10-04T23:03:31.449Z,23.55
2022-10-04T23:06:01.621Z,21.42
2022-10-04T23:08:31.824Z,18.15
2022-10-04T23:11:02.549Z,21.77
2022-10-04T23:13:32.574Z,21.05
2022-10-04T23:16:14.206Z,19.13
2022-10-04T23:18:44.097Z,21.10
2022-10-04T23:21:24.163Z,18.05
2022-10-04T23:23:55.618Z,18.73
2022-10-04T23:26:26.844Z,21.92
2022-10-04T23:28:56.733Z,20.92
2022-10-04T23:31:30.150Z,18.58
2022-10-04T23:34:00.294Z,19.98
2022-10-04T23:36:30.183Z,25.85
2022-10-04T23:39:02.682Z,20.05
2022-10-04T23:41:32.549Z,26.73
2022-10-04T23:44:02.388Z,20.15
2022-10-04T23:46:34.901Z,22.33
2022-10-04T23:49:04.750Z,21.35
2022-10-04T23:51:34.668Z,19.02
2022-10-04T23:54:04.608Z,19.73
2022-10-04T23:56:34.483Z,19.55
2022-10-04T23:59:05.032Z,19.50
